sensor_id;sensor_type;location;lat;lon;timestamp;P1;durP1;ratioP1;P2;durP2;ratioP2
56041;SDS011;48756;41.374;2.066;2023-09-12T00:00:49;8.07;;;6.10;;
56041;SDS011;48756;41.374;2.066;2023-09-12T00:03:18;7.40;;;6.03;;
56041;SDS011;48756;41.374;2.066;2023-09-12T00:05:55;8.52;;;6.35;;
56041;SDS011;48756;41.374;2.066;2023-09-12T00:08:23;14.25;;;7.30;;
56041;SDS011;48756;41.374;2.066;2023-09-12T00:11:00;6.82;;;5.53;;
56041;SDS011;48756;41.374;2.066;2023-09-12T00:13:29;9.38;;;6.30;;
56041;SDS011;48756;41.374;2.066;2023-09-12T00:15:55;7.63;;;6.88;;
56041;SDS011;48756;41.374;2.066;2023-09-12T00:18:22;7.82;;;6.97;;
56041;SDS011;48756;41.374;2.066;2023-09-12T00:20:47;7.38;;;6.22;;
56041;SDS011;48756;41.374;2.066;2023-09-12T00:23:13;7.40;;;6.70;;
56041;SDS011;48756;41.374;2.066;2023-09-12T00:25:38;6.78;;;5.50;;
56041;SDS011;48756;41.374;2.066;2023-09-12T00:28:04;8.23;;;6.22;;
56041;SDS011;48756;41.374;2.066;2023-09-12T00:30:30;8.57;;;5.40;;
56041;SDS011;48756;41.374;2.066;2023-09-12T00:32:55;9.15;;;6.95;;
56041;SDS011;48756;41.374;2.066;2023-09-12T00:35:21;6.82;;;6.13;;
56041;SDS011;48756;41.374;2.066;2023-09-12T00:37:47;10.38;;;7.32;;
56041;SDS011;48756;41.374;2.066;2023-09-12T00:40:12;8.85;;;7.93;;
56041;SDS011;48756;41.374;2.066;2023-09-12T00:42:38;11.13;;;8.00;;
56041;SDS011;48756;41.374;2.066;2023-09-12T00:45:04;9.75;;;8.75;;
56041;SDS011;48756;41.374;2.066;2023-09-12T00:47:30;6.78;;;6.18;;
56041;SDS011;48756;41.374;2.066;2023-09-12T00:49:59;9.30;;;7.53;;
56041;SDS011;48756;41.374;2.066;2023-09-12T00:52:25;9.50;;;8.60;;
56041;SDS011;48756;41.374;2.066;2023-09-12T00:54:53;9.43;;;7.53;;
56041;SDS011;48756;41.374;2.066;2023-09-12T00:57:20;9.10;;;7.35;;
56041;SDS011;48756;41.374;2.066;2023-09-12T00:59:47;10.35;;;8.35;;
56041;SDS011;48756;41.374;2.066;2023-09-12T01:02:13;8.75;;;7.88;;
56041;SDS011;48756;41.374;2.066;2023-09-12T01:04:39;8.32;;;7.22;;
56041;SDS011;48756;41.374;2.066;2023-09-12T01:07:06;8.95;;;6.75;;
56041;SDS011;48756;41.374;2.066;2023-09-12T01:09:32;9.68;;;7.50;;
56041;SDS011;48756;41.374;2.066;2023-09-12T01:11:59;9.48;;;6.13;;
56041;SDS011;48756;41.374;2.066;2023-09-12T01:14:27;9.75;;;7.00;;
56041;SDS011;48756;41.374;2.066;2023-09-12T01:16:56;7.35;;;6.65;;
56041;SDS011;48756;41.374;2.066;2023-09-12T01:19:23;8.20;;;6.50;;
56041;SDS011;48756;41.374;2.066;2023-09-12T01:27:34;6.90;;;6.13;;
56041;SDS011;48756;41.374;2.066;2023-09-12T01:30:01;6.70;;;6.00;;
56041;SDS011;48756;41.374;2.066;2023-09-12T01:32:29;10.95;;;7.22;;
56041;SDS011;48756;41.374;2.066;2023-09-12T01:34:57;9.20;;;6.85;;
56041;SDS011;48756;41.374;2.066;2023-09-12T01:37:22;6.75;;;5.75;;
56041;SDS011;48756;41.374;2.066;2023-09-12T01:39:48;11.00;;;7.60;;
56041;SDS011;48756;41.374;2.066;2023-09-12T01:42:15;10.30;;;7.93;;
56041;SDS011;48756;41.374;2.066;2023-09-12T01:44:44;11.30;;;7.35;;
56041;SDS011;48756;41.374;2.066;2023-09-12T01:47:11;9.52;;;6.45;;
56041;SDS011;48756;41.374;2.066;2023-09-12T01:49:42;9.05;;;6.75;;
56041;SDS011;48756;41.374;2.066;2023-09-12T01:52:13;13.80;;;7.28;;
56041;SDS011;48756;41.374;2.066;2023-09-12T01:54:40;6.53;;;5.82;;
56041;SDS011;48756;41.374;2.066;2023-09-12T01:57:07;9.65;;;7.55;;
56041;SDS011;48756;41.374;2.066;2023-09-12T01:59:34;10.15;;;6.00;;
56041;SDS011;48756;41.374;2.066;2023-09-12T02:01:59;11.15;;;6.40;;
56041;SDS011;48756;41.374;2.066;2023-09-12T02:04:25;9.05;;;6.47;;
56041;SDS011;48756;41.374;2.066;2023-09-12T02:06:51;7.13;;;6.07;;
56041;SDS011;48756;41.374;2.066;2023-09-12T02:09:16;8.27;;;6.70;;
56041;SDS011;48756;41.374;2.066;2023-09-12T02:11:42;7.78;;;6.63;;
56041;SDS011;48756;41.374;2.066;2023-09-12T02:14:08;6.63;;;5.60;;
56041;SDS011;48756;41.374;2.066;2023-09-12T02:16:36;7.70;;;6.85;;
56041;SDS011;48756;41.374;2.066;2023-09-12T02:19:05;10.63;;;6.68;;
56041;SDS011;48756;41.374;2.066;2023-09-12T02:21:31;9.07;;;5.68;;
56041;SDS011;48756;41.374;2.066;2023-09-12T02:23:57;8.80;;;7.50;;
56041;SDS011;48756;41.374;2.066;2023-09-12T02:26:22;15.45;;;6.65;;
56041;SDS011;48756;41.374;2.066;2023-09-12T02:28:48;9.73;;;7.63;;
56041;SDS011;48756;41.374;2.066;2023-09-12T02:31:14;12.15;;;7.60;;
56041;SDS011;48756;41.374;2.066;2023-09-12T02:33:40;8.82;;;5.90;;
56041;SDS011;48756;41.374;2.066;2023-09-12T02:36:06;8.10;;;6.38;;
56041;SDS011;48756;41.374;2.066;2023-09-12T02:38:32;19.02;;;7.90;;
56041;SDS011;48756;41.374;2.066;2023-09-12T02:40:58;11.43;;;7.47;;
56041;SDS011;48756;41.374;2.066;2023-09-12T02:43:23;9.50;;;6.20;;
56041;SDS011;48756;41.374;2.066;2023-09-12T02:45:49;10.73;;;7.53;;
56041;SDS011;48756;41.374;2.066;2023-09-12T02:48:15;10.90;;;5.72;;
56041;SDS011;48756;41.374;2.066;2023-09-12T02:50:41;12.88;;;6.57;;
56041;SDS011;48756;41.374;2.066;2023-09-12T02:53:06;10.38;;;6.85;;
56041;SDS011;48756;41.374;2.066;2023-09-12T02:55:32;8.25;;;5.63;;
56041;SDS011;48756;41.374;2.066;2023-09-12T02:57:58;12.18;;;6.88;;
56041;SDS011;48756;41.374;2.066;2023-09-12T03:00:24;13.02;;;7.70;;
56041;SDS011;48756;41.374;2.066;2023-09-12T03:02:50;8.30;;;7.40;;
56041;SDS011;48756;41.374;2.066;2023-09-12T03:05:15;10.00;;;7.25;;
56041;SDS011;48756;41.374;2.066;2023-09-12T03:07:41;11.05;;;7.75;;
56041;SDS011;48756;41.374;2.066;2023-09-12T03:10:07;9.52;;;7.45;;
56041;SDS011;48756;41.374;2.066;2023-09-12T03:12:33;9.98;;;7.72;;
56041;SDS011;48756;41.374;2.066;2023-09-12T03:15:01;9.10;;;8.13;;
56041;SDS011;48756;41.374;2.066;2023-09-12T03:17:28;10.43;;;6.68;;
56041;SDS011;48756;41.374;2.066;2023-09-12T03:19:54;8.55;;;5.65;;
56041;SDS011;48756;41.374;2.066;2023-09-12T03:22:20;7.72;;;5.93;;
56041;SDS011;48756;41.374;2.066;2023-09-12T03:24:47;10.45;;;7.63;;
56041;SDS011;48756;41.374;2.066;2023-09-12T03:27:12;10.20;;;6.05;;
56041;SDS011;48756;41.374;2.066;2023-09-12T03:29:38;7.78;;;6.32;;
56041;SDS011;48756;41.374;2.066;2023-09-12T03:32:04;9.00;;;6.13;;
56041;SDS011;48756;41.374;2.066;2023-09-12T03:34:30;8.82;;;7.10;;
56041;SDS011;48756;41.374;2.066;2023-09-12T03:36:56;6.57;;;5.55;;
56041;SDS011;48756;41.374;2.066;2023-09-12T03:39:21;9.70;;;6.90;;
56041;SDS011;48756;41.374;2.066;2023-09-12T03:41:47;10.65;;;6.07;;
56041;SDS011;48756;41.374;2.066;2023-09-12T03:44:13;7.63;;;6.82;;
56041;SDS011;48756;41.374;2.066;2023-09-12T03:46:38;12.18;;;6.75;;
56041;SDS011;48756;41.374;2.066;2023-09-12T03:49:04;7.95;;;6.55;;
56041;SDS011;48756;41.374;2.066;2023-09-12T03:51:30;12.80;;;6.18;;
56041;SDS011;48756;41.374;2.066;2023-09-12T03:53:55;8.57;;;6.22;;
56041;SDS011;48756;41.374;2.066;2023-09-12T03:56:21;9.95;;;6.97;;
56041;SDS011;48756;41.374;2.066;2023-09-12T03:58:47;11.60;;;6.03;;
56041;SDS011;48756;41.374;2.066;2023-09-12T04:01:12;7.78;;;6.68;;
56041;SDS011;48756;41.374;2.066;2023-09-12T04:03:38;10.30;;;5.95;;
56041;SDS011;48756;41.374;2.066;2023-09-12T04:06:07;6.18;;;5.03;;
56041;SDS011;48756;41.374;2.066;2023-09-12T04:08:32;6.60;;;5.70;;
56041;SDS011;48756;41.374;2.066;2023-09-12T04:10:58;5.38;;;4.85;;
56041;SDS011;48756;41.374;2.066;2023-09-12T04:13:23;5.03;;;4.53;;
56041;SDS011;48756;41.374;2.066;2023-09-12T04:15:49;7.20;;;5.95;;
56041;SDS011;48756;41.374;2.066;2023-09-12T04:18:15;7.28;;;5.30;;
56041;SDS011;48756;41.374;2.066;2023-09-12T04:20:41;6.55;;;5.90;;
56041;SDS011;48756;41.374;2.066;2023-09-12T04:23:06;7.97;;;7.20;;
56041;SDS011;48756;41.374;2.066;2023-09-12T04:25:32;9.35;;;5.97;;
56041;SDS011;48756;41.374;2.066;2023-09-12T04:27:58;8.38;;;5.65;;
56041;SDS011;48756;41.374;2.066;2023-09-12T04:30:24;10.07;;;7.30;;
56041;SDS011;48756;41.374;2.066;2023-09-12T04:32:50;8.82;;;6.03;;
56041;SDS011;48756;41.374;2.066;2023-09-12T04:35:15;8.15;;;5.60;;
56041;SDS011;48756;41.374;2.066;2023-09-12T04:37:42;9.18;;;6.45;;
56041;SDS011;48756;41.374;2.066;2023-09-12T04:40:08;8.35;;;6.53;;
56041;SDS011;48756;41.374;2.066;2023-09-12T04:42:34;11.75;;;6.55;;
56041;SDS011;48756;41.374;2.066;2023-09-12T04:45:00;16.58;;;9.73;;
56041;SDS011;48756;41.374;2.066;2023-09-12T04:47:25;19.42;;;7.45;;
56041;SDS011;48756;41.374;2.066;2023-09-12T04:49:52;11.80;;;8.10;;
56041;SDS011;48756;41.374;2.066;2023-09-12T04:52:18;8.15;;;6.75;;
56041;SDS011;48756;41.374;2.066;2023-09-12T04:54:44;8.70;;;6.70;;
56041;SDS011;48756;41.374;2.066;2023-09-12T04:57:12;9.02;;;6.22;;
56041;SDS011;48756;41.374;2.066;2023-09-12T04:59:38;11.38;;;4.63;;
56041;SDS011;48756;41.374;2.066;2023-09-12T05:02:04;8.73;;;4.78;;
56041;SDS011;48756;41.374;2.066;2023-09-12T05:04:29;5.72;;;4.13;;
56041;SDS011;48756;41.374;2.066;2023-09-12T05:06:55;8.43;;;5.40;;
56041;SDS011;48756;41.374;2.066;2023-09-12T05:09:21;8.40;;;5.68;;
56041;SDS011;48756;41.374;2.066;2023-09-12T05:11:46;10.07;;;6.07;;
56041;SDS011;48756;41.374;2.066;2023-09-12T05:14:12;7.55;;;6.40;;
56041;SDS011;48756;41.374;2.066;2023-09-12T05:16:38;10.63;;;7.38;;
56041;SDS011;48756;41.374;2.066;2023-09-12T05:19:03;6.25;;;5.10;;
56041;SDS011;48756;41.374;2.066;2023-09-12T05:21:29;13.00;;;7.85;;
56041;SDS011;48756;41.374;2.066;2023-09-12T05:23:55;12.45;;;7.82;;
56041;SDS011;48756;41.374;2.066;2023-09-12T05:26:21;10.43;;;7.43;;
56041;SDS011;48756;41.374;2.066;2023-09-12T05:28:46;13.18;;;6.95;;
56041;SDS011;48756;41.374;2.066;2023-09-12T05:31:12;14.85;;;9.13;;
56041;SDS011;48756;41.374;2.066;2023-09-12T05:33:38;12.30;;;8.35;;
56041;SDS011;48756;41.374;2.066;2023-09-12T05:36:03;10.43;;;6.68;;
56041;SDS011;48756;41.374;2.066;2023-09-12T05:38:29;8.98;;;6.50;;
56041;SDS011;48756;41.374;2.066;2023-09-12T05:40:55;9.55;;;6.95;;
56041;SDS011;48756;41.374;2.066;2023-09-12T05:43:22;15.98;;;6.75;;
56041;SDS011;48756;41.374;2.066;2023-09-12T05:45:47;11.43;;;7.78;;
56041;SDS011;48756;41.374;2.066;2023-09-12T05:48:13;9.82;;;6.78;;
56041;SDS011;48756;41.374;2.066;2023-09-12T05:50:39;11.00;;;6.28;;
56041;SDS011;48756;41.374;2.066;2023-09-12T05:53:04;10.93;;;6.68;;
56041;SDS011;48756;41.374;2.066;2023-09-12T05:55:30;13.02;;;6.63;;
56041;SDS011;48756;41.374;2.066;2023-09-12T05:57:59;8.18;;;6.53;;
56041;SDS011;48756;41.374;2.066;2023-09-12T06:00:24;9.63;;;5.68;;
56041;SDS011;48756;41.374;2.066;2023-09-12T06:02:50;12.43;;;6.38;;
56041;SDS011;48756;41.374;2.066;2023-09-12T06:05:16;10.35;;;6.38;;
56041;SDS011;48756;41.374;2.066;2023-09-12T06:07:42;9.20;;;6.07;;
56041;SDS011;48756;41.374;2.066;2023-09-12T06:10:08;10.65;;;5.50;;
56041;SDS011;48756;41.374;2.066;2023-09-12T06:12:34;7.28;;;5.38;;
56041;SDS011;48756;41.374;2.066;2023-09-12T06:15:01;9.23;;;6.30;;
56041;SDS011;48756;41.374;2.066;2023-09-12T06:17:29;11.15;;;7.70;;
56041;SDS011;48756;41.374;2.066;2023-09-12T06:19:54;8.43;;;6.85;;
56041;SDS011;48756;41.374;2.066;2023-09-12T06:22:21;11.82;;;8.30;;
56041;SDS011;48756;41.374;2.066;2023-09-12T06:24:47;19.85;;;8.23;;
56041;SDS011;48756;41.374;2.066;2023-09-12T06:27:14;10.93;;;6.75;;
56041;SDS011;48756;41.374;2.066;2023-09-12T06:29:44;17.50;;;8.18;;
56041;SDS011;48756;41.374;2.066;2023-09-12T06:32:11;10.93;;;7.40;;
56041;SDS011;48756;41.374;2.066;2023-09-12T06:34:36;12.85;;;8.15;;
56041;SDS011;48756;41.374;2.066;2023-09-12T06:37:02;9.02;;;7.10;;
56041;SDS011;48756;41.374;2.066;2023-09-12T06:39:27;14.13;;;7.20;;
56041;SDS011;48756;41.374;2.066;2023-09-12T06:41:53;13.52;;;7.82;;
56041;SDS011;48756;41.374;2.066;2023-09-12T06:44:19;9.20;;;7.85;;
56041;SDS011;48756;41.374;2.066;2023-09-12T06:46:44;12.40;;;7.20;;
56041;SDS011;48756;41.374;2.066;2023-09-12T06:49:10;9.02;;;6.22;;
56041;SDS011;48756;41.374;2.066;2023-09-12T06:51:35;8.80;;;6.45;;
56041;SDS011;48756;41.374;2.066;2023-09-12T06:54:01;9.55;;;7.90;;
56041;SDS011;48756;41.374;2.066;2023-09-12T06:56:26;8.50;;;7.30;;
56041;SDS011;48756;41.374;2.066;2023-09-12T06:58:52;8.52;;;6.70;;
56041;SDS011;48756;41.374;2.066;2023-09-12T07:01:20;8.85;;;6.40;;
56041;SDS011;48756;41.374;2.066;2023-09-12T07:03:46;15.77;;;7.55;;
56041;SDS011;48756;41.374;2.066;2023-09-12T07:06:11;11.13;;;7.13;;
56041;SDS011;48756;41.374;2.066;2023-09-12T07:08:37;12.13;;;7.03;;
56041;SDS011;48756;41.374;2.066;2023-09-12T07:11:03;9.73;;;6.15;;
56041;SDS011;48756;41.374;2.066;2023-09-12T07:13:31;12.18;;;6.90;;
56041;SDS011;48756;41.374;2.066;2023-09-12T07:15:58;18.73;;;8.13;;
56041;SDS011;48756;41.374;2.066;2023-09-12T07:18:24;16.05;;;8.25;;
56041;SDS011;48756;41.374;2.066;2023-09-12T07:20:59;16.95;;;7.38;;
56041;SDS011;48756;41.374;2.066;2023-09-12T07:25:51;12.20;;;8.53;;
56041;SDS011;48756;41.374;2.066;2023-09-12T07:28:17;11.88;;;7.30;;
56041;SDS011;48756;41.374;2.066;2023-09-12T07:30:45;16.55;;;8.20;;
56041;SDS011;48756;41.374;2.066;2023-09-12T07:33:11;14.43;;;8.25;;
56041;SDS011;48756;41.374;2.066;2023-09-12T07:35:37;10.73;;;8.05;;
56041;SDS011;48756;41.374;2.066;2023-09-12T07:38:02;16.77;;;8.10;;
56041;SDS011;48756;41.374;2.066;2023-09-12T07:40:28;12.50;;;8.57;;
56041;SDS011;48756;41.374;2.066;2023-09-12T07:42:54;11.63;;;8.05;;
56041;SDS011;48756;41.374;2.066;2023-09-12T07:45:20;11.02;;;8.15;;
56041;SDS011;48756;41.374;2.066;2023-09-12T07:47:46;9.07;;;6.18;;
56041;SDS011;48756;41.374;2.066;2023-09-12T07:50:11;12.55;;;6.57;;
56041;SDS011;48756;41.374;2.066;2023-09-12T07:52:37;12.88;;;7.10;;
56041;SDS011;48756;41.374;2.066;2023-09-12T07:55:03;7.65;;;6.25;;
56041;SDS011;48756;41.374;2.066;2023-09-12T07:57:29;8.30;;;6.90;;
56041;SDS011;48756;41.374;2.066;2023-09-12T07:59:55;9.27;;;7.57;;
56041;SDS011;48756;41.374;2.066;2023-09-12T08:02:21;7.97;;;6.30;;
56041;SDS011;48756;41.374;2.066;2023-09-12T08:04:48;14.05;;;7.93;;
56041;SDS011;48756;41.374;2.066;2023-09-12T08:07:14;13.68;;;7.95;;
56041;SDS011;48756;41.374;2.066;2023-09-12T08:09:50;8.40;;;6.68;;
56041;SDS011;48756;41.374;2.066;2023-09-12T08:12:17;9.43;;;7.85;;
56041;SDS011;48756;41.374;2.066;2023-09-12T08:14:44;10.65;;;6.25;;
56041;SDS011;48756;41.374;2.066;2023-09-12T08:17:10;9.07;;;6.90;;
56041;SDS011;48756;41.374;2.066;2023-09-12T08:19:37;9.88;;;7.03;;
56041;SDS011;48756;41.374;2.066;2023-09-12T08:22:03;9.48;;;7.78;;
56041;SDS011;48756;41.374;2.066;2023-09-12T08:24:29;6.70;;;5.22;;
56041;SDS011;48756;41.374;2.066;2023-09-12T08:26:54;5.45;;;4.80;;
56041;SDS011;48756;41.374;2.066;2023-09-12T08:29:20;5.63;;;5.03;;
56041;SDS011;48756;41.374;2.066;2023-09-12T08:31:46;6.53;;;4.97;;
56041;SDS011;48756;41.374;2.066;2023-09-12T08:34:12;4.50;;;4.05;;
56041;SDS011;48756;41.374;2.066;2023-09-12T08:36:38;7.65;;;4.72;;
56041;SDS011;48756;41.374;2.066;2023-09-12T08:39:04;3.75;;;2.97;;
56041;SDS011;48756;41.374;2.066;2023-09-12T08:41:33;4.93;;;4.05;;
56041;SDS011;48756;41.374;2.066;2023-09-12T08:43:59;5.72;;;3.75;;
56041;SDS011;48756;41.374;2.066;2023-09-12T08:46:26;4.18;;;3.75;;
56041;SDS011;48756;41.374;2.066;2023-09-12T08:48:56;4.63;;;3.50;;
56041;SDS011;48756;41.374;2.066;2023-09-12T08:51:22;5.13;;;3.03;;
56041;SDS011;48756;41.374;2.066;2023-09-12T08:53:51;5.30;;;3.50;;
56041;SDS011;48756;41.374;2.066;2023-09-12T08:56:18;7.10;;;3.97;;
56041;SDS011;48756;41.374;2.066;2023-09-12T08:58:44;8.95;;;4.53;;
56041;SDS011;48756;41.374;2.066;2023-09-12T09:01:12;33.78;;;6.72;;
56041;SDS011;48756;41.374;2.066;2023-09-12T09:03:39;8.88;;;4.18;;
56041;SDS011;48756;41.374;2.066;2023-09-12T09:06:08;20.27;;;6.07;;
56041;SDS011;48756;41.374;2.066;2023-09-12T09:08:35;44.05;;;6.60;;
56041;SDS011;48756;41.374;2.066;2023-09-12T09:11:02;34.92;;;6.78;;
56041;SDS011;48756;41.374;2.066;2023-09-12T09:13:29;8.63;;;3.92;;
56041;SDS011;48756;41.374;2.066;2023-09-12T09:16:09;7.10;;;4.60;;
56041;SDS011;48756;41.374;2.066;2023-09-12T09:19:10;27.30;;;7.60;;
56041;SDS011;48756;41.374;2.066;2023-09-12T09:21:36;9.77;;;4.72;;
56041;SDS011;48756;41.374;2.066;2023-09-12T09:24:09;12.10;;;5.20;;
56041;SDS011;48756;41.374;2.066;2023-09-12T09:26:49;22.50;;;5.38;;
56041;SDS011;48756;41.374;2.066;2023-09-12T09:29:16;5.18;;;4.28;;
56041;SDS011;48756;41.374;2.066;2023-09-12T09:31:44;12.85;;;4.13;;
56041;SDS011;48756;41.374;2.066;2023-09-12T09:34:14;6.22;;;3.28;;
56041;SDS011;48756;41.374;2.066;2023-09-12T09:36:41;16.85;;;4.40;;
56041;SDS011;48756;41.374;2.066;2023-09-12T09:39:08;4.38;;;3.97;;
56041;SDS011;48756;41.374;2.066;2023-09-12T09:41:34;7.32;;;3.45;;
56041;SDS011;48756;41.374;2.066;2023-09-12T09:44:01;4.95;;;3.95;;
56041;SDS011;48756;41.374;2.066;2023-09-12T09:46:26;5.45;;;3.60;;
56041;SDS011;48756;41.374;2.066;2023-09-12T09:48:52;6.10;;;4.78;;
56041;SDS011;48756;41.374;2.066;2023-09-12T09:51:18;6.82;;;4.60;;
56041;SDS011;48756;41.374;2.066;2023-09-12T09:53:44;7.55;;;4.82;;
56041;SDS011;48756;41.374;2.066;2023-09-12T09:56:13;7.55;;;5.35;;
56041;SDS011;48756;41.374;2.066;2023-09-12T09:58:54;5.32;;;4.35;;
56041;SDS011;48756;41.374;2.066;2023-09-12T10:01:22;5.45;;;4.68;;
56041;SDS011;48756;41.374;2.066;2023-09-12T10:03:52;9.55;;;4.85;;
56041;SDS011;48756;41.374;2.066;2023-09-12T10:06:23;9.25;;;5.93;;
56041;SDS011;48756;41.374;2.066;2023-09-12T10:08:52;7.80;;;3.90;;
56041;SDS011;48756;41.374;2.066;2023-09-12T10:11:20;15.38;;;4.80;;
56041;SDS011;48756;41.374;2.066;2023-09-12T10:13:55;6.78;;;4.57;;
56041;SDS011;48756;41.374;2.066;2023-09-12T10:16:24;6.85;;;4.40;;
56041;SDS011;48756;41.374;2.066;2023-09-12T10:21:32;6.40;;;4.82;;
56041;SDS011;48756;41.374;2.066;2023-09-12T10:24:00;9.85;;;5.00;;
56041;SDS011;48756;41.374;2.066;2023-09-12T10:26:28;4.82;;;3.95;;
56041;SDS011;48756;41.374;2.066;2023-09-12T10:28:56;8.52;;;5.20;;
56041;SDS011;48756;41.374;2.066;2023-09-12T10:31:24;8.48;;;4.35;;
56041;SDS011;48756;41.374;2.066;2023-09-12T10:33:51;7.30;;;4.80;;
56041;SDS011;48756;41.374;2.066;2023-09-12T10:36:19;18.27;;;5.85;;
56041;SDS011;48756;41.374;2.066;2023-09-12T10:38:46;28.48;;;9.00;;
56041;SDS011;48756;41.374;2.066;2023-09-12T10:41:13;18.73;;;6.30;;
56041;SDS011;48756;41.374;2.066;2023-09-12T10:43:40;7.07;;;4.88;;
56041;SDS011;48756;41.374;2.066;2023-09-12T10:46:07;6.93;;;5.35;;
56041;SDS011;48756;41.374;2.066;2023-09-12T10:48:34;7.68;;;4.53;;
56041;SDS011;48756;41.374;2.066;2023-09-12T10:51:01;5.97;;;4.43;;
56041;SDS011;48756;41.374;2.066;2023-09-12T10:53:30;6.72;;;4.47;;
56041;SDS011;48756;41.374;2.066;2023-09-12T11:01:36;5.32;;;3.53;;
56041;SDS011;48756;41.374;2.066;2023-09-12T11:06:50;15.80;;;5.85;;
56041;SDS011;48756;41.374;2.066;2023-09-12T11:09:16;28.02;;;5.53;;
56041;SDS011;48756;41.374;2.066;2023-09-12T11:11:45;19.83;;;5.13;;
56041;SDS011;48756;41.374;2.066;2023-09-12T11:14:15;26.48;;;6.72;;
56041;SDS011;48756;41.374;2.066;2023-09-12T11:16:43;19.90;;;6.05;;
56041;SDS011;48756;41.374;2.066;2023-09-12T11:19:39;29.73;;;6.60;;
56041;SDS011;48756;41.374;2.066;2023-09-12T11:22:20;6.55;;;3.60;;
56041;SDS011;48756;41.374;2.066;2023-09-12T11:24:51;43.58;;;7.38;;
56041;SDS011;48756;41.374;2.066;2023-09-12T11:27:17;21.05;;;4.35;;
56041;SDS011;48756;41.374;2.066;2023-09-12T11:29:42;8.50;;;3.63;;
56041;SDS011;48756;41.374;2.066;2023-09-12T11:32:08;4.63;;;3.88;;
56041;SDS011;48756;41.374;2.066;2023-09-12T11:34:38;4.50;;;3.90;;
56041;SDS011;48756;41.374;2.066;2023-09-12T11:37:07;15.82;;;5.35;;
56041;SDS011;48756;41.374;2.066;2023-09-12T11:39:34;5.72;;;4.47;;
56041;SDS011;48756;41.374;2.066;2023-09-12T11:42:02;7.72;;;4.32;;
56041;SDS011;48756;41.374;2.066;2023-09-12T11:44:28;9.93;;;4.10;;
56041;SDS011;48756;41.374;2.066;2023-09-12T11:47:01;13.50;;;3.40;;
56041;SDS011;48756;41.374;2.066;2023-09-12T11:49:28;9.63;;;3.58;;
56041;SDS011;48756;41.374;2.066;2023-09-12T11:52:01;6.07;;;4.10;;
56041;SDS011;48756;41.374;2.066;2023-09-12T11:54:28;18.13;;;4.13;;
56041;SDS011;48756;41.374;2.066;2023-09-12T11:56:54;21.77;;;4.82;;
56041;SDS011;48756;41.374;2.066;2023-09-12T11:59:26;6.30;;;3.55;;
56041;SDS011;48756;41.374;2.066;2023-09-12T12:01:52;17.85;;;3.92;;
56041;SDS011;48756;41.374;2.066;2023-09-12T12:04:22;9.98;;;3.35;;
56041;SDS011;48756;41.374;2.066;2023-09-12T12:06:49;42.28;;;6.97;;
56041;SDS011;48756;41.374;2.066;2023-09-12T12:09:16;6.00;;;2.90;;
56041;SDS011;48756;41.374;2.066;2023-09-12T12:11:46;12.60;;;4.50;;
56041;SDS011;48756;41.374;2.066;2023-09-12T12:16:45;23.73;;;5.63;;
56041;SDS011;48756;41.374;2.066;2023-09-12T12:19:11;34.78;;;7.03;;
56041;SDS011;48756;41.374;2.066;2023-09-12T12:21:38;19.13;;;3.63;;
56041;SDS011;48756;41.374;2.066;2023-09-12T12:24:05;6.18;;;3.17;;
56041;SDS011;48756;41.374;2.066;2023-09-12T12:26:33;10.95;;;2.90;;
56041;SDS011;48756;41.374;2.066;2023-09-12T12:29:03;19.58;;;7.07;;
56041;SDS011;48756;41.374;2.066;2023-09-12T12:31:29;15.43;;;4.72;;
56041;SDS011;48756;41.374;2.066;2023-09-12T12:33:56;40.65;;;5.88;;
56041;SDS011;48756;41.374;2.066;2023-09-12T12:36:22;60.10;;;9.48;;
56041;SDS011;48756;41.374;2.066;2023-09-12T12:38:49;97.22;;;13.02;;
56041;SDS011;48756;41.374;2.066;2023-09-12T12:41:16;15.60;;;5.97;;
56041;SDS011;48756;41.374;2.066;2023-09-12T12:43:50;5.45;;;2.90;;
56041;SDS011;48756;41.374;2.066;2023-09-12T12:46:23;16.00;;;6.40;;
56041;SDS011;48756;41.374;2.066;2023-09-12T12:48:49;8.50;;;4.70;;
56041;SDS011;48756;41.374;2.066;2023-09-12T12:51:16;16.65;;;4.03;;
56041;SDS011;48756;41.374;2.066;2023-09-12T12:53:47;36.35;;;7.43;;
56041;SDS011;48756;41.374;2.066;2023-09-12T12:56:16;67.07;;;10.80;;
56041;SDS011;48756;41.374;2.066;2023-09-12T12:58:47;5.57;;;3.63;;
56041;SDS011;48756;41.374;2.066;2023-09-12T13:01:14;3.83;;;3.25;;
56041;SDS011;48756;41.374;2.066;2023-09-12T13:03:40;8.43;;;3.25;;
56041;SDS011;48756;41.374;2.066;2023-09-12T13:06:06;5.57;;;3.72;;
56041;SDS011;48756;41.374;2.066;2023-09-12T13:08:33;4.38;;;3.70;;
56041;SDS011;48756;41.374;2.066;2023-09-12T13:11:00;7.28;;;3.45;;
56041;SDS011;48756;41.374;2.066;2023-09-12T13:13:27;7.90;;;4.03;;
56041;SDS011;48756;41.374;2.066;2023-09-12T13:15:53;4.93;;;3.13;;
56041;SDS011;48756;41.374;2.066;2023-09-12T13:18:18;8.73;;;3.13;;
56041;SDS011;48756;41.374;2.066;2023-09-12T13:20:44;3.97;;;3.05;;
56041;SDS011;48756;41.374;2.066;2023-09-12T13:23:09;6.07;;;3.70;;
56041;SDS011;48756;41.374;2.066;2023-09-12T13:25:35;7.13;;;3.90;;
56041;SDS011;48756;41.374;2.066;2023-09-12T13:28:01;5.18;;;3.47;;
56041;SDS011;48756;41.374;2.066;2023-09-12T13:30:27;4.40;;;3.92;;
56041;SDS011;48756;41.374;2.066;2023-09-12T13:32:52;13.65;;;4.50;;
56041;SDS011;48756;41.374;2.066;2023-09-12T13:35:19;13.82;;;3.22;;
56041;SDS011;48756;41.374;2.066;2023-09-12T13:37:44;7.03;;;3.30;;
56041;SDS011;48756;41.374;2.066;2023-09-12T13:40:10;3.05;;;2.50;;
56041;SDS011;48756;41.374;2.066;2023-09-12T13:42:36;4.35;;;3.47;;
56041;SDS011;48756;41.374;2.066;2023-09-12T13:45:02;3.70;;;3.05;;
56041;SDS011;48756;41.374;2.066;2023-09-12T13:47:28;9.60;;;4.22;;
56041;SDS011;48756;41.374;2.066;2023-09-12T13:49:54;6.03;;;4.18;;
56041;SDS011;48756;41.374;2.066;2023-09-12T13:52:20;7.18;;;3.97;;
56041;SDS011;48756;41.374;2.066;2023-09-12T13:54:46;6.57;;;4.30;;
56041;SDS011;48756;41.374;2.066;2023-09-12T13:57:11;5.60;;;4.47;;
56041;SDS011;48756;41.374;2.066;2023-09-12T13:59:37;30.00;;;5.40;;
56041;SDS011;48756;41.374;2.066;2023-09-12T14:02:03;3.88;;;3.47;;
56041;SDS011;48756;41.374;2.066;2023-09-12T14:04:28;3.50;;;3.20;;
56041;SDS011;48756;41.374;2.066;2023-09-12T14:06:54;4.35;;;3.85;;
56041;SDS011;48756;41.374;2.066;2023-09-12T14:09:19;4.45;;;4.05;;
56041;SDS011;48756;41.374;2.066;2023-09-12T14:11:45;7.72;;;4.15;;
56041;SDS011;48756;41.374;2.066;2023-09-12T14:14:12;4.30;;;2.72;;
56041;SDS011;48756;41.374;2.066;2023-09-12T14:16:38;8.48;;;4.18;;
56041;SDS011;48756;41.374;2.066;2023-09-12T14:19:04;9.50;;;4.65;;
56041;SDS011;48756;41.374;2.066;2023-09-12T14:21:29;6.20;;;4.30;;
56041;SDS011;48756;41.374;2.066;2023-09-12T14:23:55;3.30;;;2.85;;
56041;SDS011;48756;41.374;2.066;2023-09-12T14:26:22;6.60;;;3.90;;
56041;SDS011;48756;41.374;2.066;2023-09-12T14:28:48;8.80;;;4.53;;
56041;SDS011;48756;41.374;2.066;2023-09-12T14:31:13;7.32;;;3.65;;
56041;SDS011;48756;41.374;2.066;2023-09-12T14:33:40;6.65;;;3.58;;
56041;SDS011;48756;41.374;2.066;2023-09-12T14:36:07;5.25;;;3.60;;
56041;SDS011;48756;41.374;2.066;2023-09-12T14:38:34;4.40;;;3.67;;
56041;SDS011;48756;41.374;2.066;2023-09-12T14:40:59;21.17;;;4.35;;
56041;SDS011;48756;41.374;2.066;2023-09-12T14:43:25;4.57;;;3.80;;
56041;SDS011;48756;41.374;2.066;2023-09-12T14:45:53;4.97;;;3.85;;
56041;SDS011;48756;41.374;2.066;2023-09-12T14:48:19;8.10;;;4.65;;
56041;SDS011;48756;41.374;2.066;2023-09-12T14:50:45;4.75;;;3.83;;
56041;SDS011;48756;41.374;2.066;2023-09-12T14:53:14;4.22;;;3.72;;
56041;SDS011;48756;41.374;2.066;2023-09-12T14:55:41;6.55;;;4.28;;
56041;SDS011;48756;41.374;2.066;2023-09-12T14:58:07;4.30;;;3.90;;
56041;SDS011;48756;41.374;2.066;2023-09-12T15:00:32;6.07;;;4.03;;
56041;SDS011;48756;41.374;2.066;2023-09-12T15:02:59;6.20;;;4.93;;